createdAt,value
2018-12-10T00:00:49.172Z,27.3
2018-12-10T00:01:40.458Z,27.3
2018-12-10T00:02:29.831Z,27.3
2018-12-10T00:03:19.896Z,27.6
2018-12-10T00:04:10.516Z,27.6
2018-12-10T00:05:00.273Z,27.6
2018-12-10T00:05:49.891Z,27.4
2018-12-10T00:06:40.456Z,27.3
2018-12-10T00:24:51.808Z,28.6
2018-12-10T00:25:42.150Z,28.6
2018-12-10T00:26:32.772Z,28.6
2018-12-10T00:27:22.309Z,28.5
2018-12-10T00:28:12.184Z,28.5
2018-12-10T00:29:01.824Z,28.1
2018-12-10T00:29:52.794Z,27.8
2018-12-10T00:30:41.959Z,27.5
2018-12-10T00:31:32.266Z,27.4
2018-12-10T00:32:23.434Z,27.1
2018-12-10T00:33:13.216Z,26.9
2018-12-10T00:34:03.109Z,27.1
2018-12-10T00:34:55.398Z,27.1
2018-12-10T00:35:42.249Z,26.9
2018-12-10T00:36:35.399Z,26.9
2018-12-10T00:37:23.262Z,26.8
2018-12-10T00:38:12.731Z,26.9
2018-12-10T00:39:03.063Z,27
2018-12-10T00:39:52.838Z,27.3
2018-12-10T00:40:42.889Z,27.4
2018-12-10T00:41:33.826Z,27.6
2018-12-10T00:42:23.406Z,27.8
2018-12-10T00:43:13.554Z,27.9
2018-12-10T00:44:04.271Z,28
2018-12-10T00:44:53.926Z,28.1
2018-12-10T00:45:43.970Z,28.2
2018-12-10T00:46:34.806Z,28.3
2018-12-10T00:47:24.170Z,28.3
2018-12-10T00:48:13.475Z,28.4
2018-12-10T00:49:03.628Z,28.5
2018-12-10T00:49:54.998Z,28.6
2018-12-10T00:50:44.243Z,28.6
2018-12-10T00:51:33.500Z,28.6
2018-12-10T00:52:23.477Z,28.6
2018-12-10T00:53:13.252Z,28.6
2018-12-10T00:54:04.233Z,28.6
2018-12-10T00:54:53.920Z,28.6
2018-12-10T00:55:44.595Z,28.6
2018-12-10T00:56:34.352Z,28.5
2018-12-10T00:57:23.819Z,28.5
2018-12-10T00:58:14.445Z,28.5
2018-12-10T00:59:04.243Z,28.4
2018-12-10T00:59:54.571Z,28.1
2018-12-10T01:00:44.912Z,27.7
2018-12-10T01:01:34.393Z,27.4
2018-12-10T01:02:24.995Z,27.3
2018-12-10T01:03:15.065Z,27
2018-12-10T01:04:05.197Z,26.8
2018-12-10T01:04:55.280Z,26.9
2018-12-10T01:05:44.340Z,27.1
2018-12-10T01:06:34.557Z,26.8
2018-12-10T01:07:23.884Z,26.8
2018-12-10T01:08:14.684Z,26.8
2018-12-10T01:09:04.429Z,26.8
2018-12-10T01:09:55.322Z,26.9
2018-12-10T01:10:46.382Z,27.1
2018-12-10T01:11:34.991Z,27.3
2018-12-10T01:12:25.419Z,27.5
2018-12-10T01:13:15.258Z,27.6
2018-12-10T01:14:06.464Z,27.8
2018-12-10T01:14:55.522Z,27.9
2018-12-10T01:15:45.569Z,28
2018-12-10T01:16:35.924Z,28.1
2018-12-10T01:17:26.804Z,28.2
2018-12-10T01:18:15.483Z,28.3
2018-12-10T01:19:06.364Z,28.3
2018-12-10T01:19:56.256Z,28.4
2018-12-10T01:20:46.204Z,28.4
2018-12-10T01:21:37.244Z,28.5
2018-12-10T01:22:26.441Z,28.6
2018-12-10T01:23:16.686Z,28.6
2018-12-10T01:24:06.177Z,28.6
2018-12-10T01:24:56.348Z,28.7
2018-12-10T01:25:47.417Z,28.7
2018-12-10T01:26:38.574Z,28.7
2018-12-10T01:27:27.191Z,28.7
2018-12-10T01:28:16.491Z,28.6
2018-12-10T01:29:06.233Z,28.6
2018-12-10T01:29:56.396Z,28.6
2018-12-10T01:30:46.896Z,28.6
2018-12-10T01:31:37.866Z,28.6
2018-12-10T01:32:26.783Z,28.4
2018-12-10T01:33:17.091Z,28.2
2018-12-10T01:34:06.850Z,27.8
2018-12-10T01:34:57.743Z,27.6
2018-12-10T01:35:47.466Z,27.4
2018-12-10T01:36:37.680Z,27.3
2018-12-10T01:37:26.263Z,26.9
2018-12-10T01:38:18.228Z,26.9
2018-12-10T01:39:07.268Z,26.9
2018-12-10T01:39:57.325Z,27
2018-12-10T01:40:47.298Z,26.8
2018-12-10T01:41:37.870Z,26.8
2018-12-10T01:42:27.115Z,26.8
2018-12-10T01:43:18.570Z,26.8
2018-12-10T01:44:08.170Z,26.9
2018-12-10T01:44:57.895Z,27.2
2018-12-10T01:45:47.059Z,27.4
2018-12-10T01:46:37.612Z,27.5
2018-12-10T01:47:28.061Z,27.5
2018-12-10T01:48:17.345Z,27.4
2018-12-10T01:49:07.346Z,27.3
2018-12-10T01:49:57.520Z,27.1
2018-12-10T01:50:47.700Z,26.9
2018-12-10T01:51:38.330Z,26.6
2018-12-10T01:52:29.317Z,26.5
2018-12-10T01:53:18.997Z,26.4
2018-12-10T01:54:08.210Z,26.6
2018-12-10T01:54:57.816Z,26.9
2018-12-10T01:55:47.753Z,27
2018-12-10T01:56:38.204Z,27.1
2018-12-10T01:57:28.388Z,27
2018-12-10T01:58:19.670Z,26.8
2018-12-10T01:59:08.849Z,26.7
2018-12-10T01:59:57.654Z,26.5
2018-12-10T02:00:48.184Z,26.5
2018-12-10T02:01:39.903Z,26.7
2018-12-10T02:02:28.269Z,26.9
2018-12-10T02:03:18.657Z,27.1
2018-12-10T02:04:09.009Z,27.3
2018-12-10T02:04:59.590Z,27.5
2018-12-10T02:05:49.816Z,27.6
2018-12-10T02:06:39.610Z,27.8
2018-12-10T02:08:19.491Z,27.9
2018-12-10T02:09:09.235Z,28.1
2018-12-10T02:09:58.184Z,28.2
2018-12-10T02:10:49.908Z,28.3
2018-12-10T02:11:39.179Z,28.3
2018-12-10T02:12:29.703Z,28.4
2018-12-10T02:13:19.759Z,28.4
2018-12-10T02:14:10.783Z,28.5
2018-12-10T02:14:59.643Z,28.5
2018-12-10T02:15:49.713Z,28.5
2018-12-10T02:16:39.478Z,28.4
2018-12-10T02:17:30.921Z,28.4
2018-12-10T02:18:19.573Z,28.4
2018-12-10T02:19:11.428Z,28.4
2018-12-10T02:20:00.124Z,28.4
2018-12-10T02:20:50.593Z,28.4
2018-12-10T02:21:39.814Z,28.4
2018-12-10T02:22:30.766Z,27.9
2018-12-10T02:23:19.708Z,27.6
2018-12-10T02:24:10.444Z,27.4
2018-12-10T02:25:00.538Z,27.2
2018-12-10T02:25:49.920Z,26.8
2018-12-10T02:26:41.590Z,26.9
2018-12-10T02:27:31.023Z,27.1
2018-12-10T02:28:20.950Z,26.9
2018-12-10T02:29:11.185Z,26.8
2018-12-10T02:30:01.213Z,26.8
2018-12-10T02:30:51.342Z,26.7
2018-12-10T02:31:40.855Z,26.8
2018-12-10T02:32:31.154Z,27
2018-12-10T02:33:21.521Z,27.2
2018-12-10T02:34:11.560Z,27.4
2018-12-10T02:35:01.179Z,27.6
2018-12-10T02:35:51.246Z,27.7
2018-12-10T02:37:31.617Z,27.9
2018-12-10T02:38:21.280Z,28
2018-12-10T02:39:12.050Z,28.1
2018-12-10T02:40:02.029Z,28.2
2018-12-10T02:40:52.007Z,28.3
2018-12-10T02:41:41.639Z,28.3
2018-12-10T02:42:31.895Z,28.4
2018-12-10T02:43:22.171Z,28.5
2018-12-10T02:44:12.806Z,28.5
2018-12-10T02:45:02.248Z,28.5
2018-12-10T02:45:52.123Z,28.6
2018-12-10T02:46:41.439Z,28.5
2018-12-10T02:47:32.956Z,28.5
2018-12-10T02:48:22.128Z,28.5
2018-12-10T02:49:12.589Z,28.5
2018-12-10T02:50:03.454Z,28.5
2018-12-10T02:50:52.568Z,28.4
2018-12-10T02:51:41.468Z,28.4
2018-12-10T02:52:32.629Z,28.4
2018-12-10T02:53:21.224Z,28
2018-12-10T02:55:03.136Z,27.4
2018-12-10T02:55:53.368Z,27.2
2018-12-10T02:56:42.879Z,26.8
2018-12-10T02:57:33.465Z,26.8
2018-12-10T02:58:22.486Z,26.9
2018-12-10T02:59:13.005Z,26.9
2018-12-10T03:00:02.967Z,26.7
2018-12-10T03:00:52.519Z,26.7
2018-12-10T03:01:42.776Z,26.7
2018-12-10T03:02:33.147Z,26.8
2018-12-10T03:03:23.752Z,26.9
2018-12-10T03:04:12.698Z,27.1
2018-12-10T03:05:04.121Z,27.3
2018-12-10T03:05:53.289Z,27.4
2018-12-10T03:06:43.438Z,27.6
2018-12-10T03:07:34.015Z,27.7
2018-12-10T03:09:14.298Z,27.9
2018-12-10T03:10:03.565Z,28
2018-12-10T03:10:54.058Z,28.1
2018-12-10T03:11:44.292Z,28.1
2018-12-10T03:12:33.682Z,28.3
2018-12-10T03:13:24.009Z,28.3
2018-12-10T03:14:14.112Z,28.4
2018-12-10T03:15:05.157Z,28.5
2018-12-10T03:15:54.218Z,28.5
2018-12-10T03:16:44.536Z,28.6
2018-12-10T03:17:34.269Z,28.6
2018-12-10T03:18:24.867Z,28.6
2018-12-10T03:19:14.303Z,28.6
2018-12-10T03:20:04.843Z,28.6
2018-12-10T03:20:56.851Z,28.6
2018-12-10T03:21:45.257Z,28.5
2018-12-10T03:22:34.490Z,28.5
2018-12-10T03:23:25.080Z,28.5
2018-12-10T03:24:14.491Z,28.5
2018-12-10T03:25:04.513Z,28.4
2018-12-10T03:25:54.279Z,28.4
2018-12-10T03:26:45.778Z,28
2018-12-10T03:27:34.404Z,27.6
2018-12-10T03:28:25.427Z,27.4
2018-12-10T03:29:15.364Z,27.3
2018-12-10T03:30:05.246Z,27
2018-12-10T03:30:56.515Z,26.8
2018-12-10T03:31:45.070Z,26.8
2018-12-10T03:32:34.066Z,27
2018-12-10T03:33:26.129Z,26.8
2018-12-10T03:34:15.459Z,26.7
2018-12-10T03:35:05.603Z,26.7
2018-12-10T03:35:55.020Z,26.8
2018-12-10T03:36:45.579Z,26.9
2018-12-10T03:37:34.637Z,27.1
2018-12-10T03:38:25.936Z,27.2
2018-12-10T03:39:16.028Z,27.1
2018-12-10T03:40:05.062Z,26.9
2018-12-10T03:40:54.933Z,26.8
2018-12-10T03:41:45.429Z,26.6
2018-12-10T03:42:35.722Z,26.4
2018-12-10T03:43:26.091Z,26.3
2018-12-10T03:44:16.110Z,26.3
2018-12-10T03:45:06.153Z,26.3
2018-12-10T03:45:56.694Z,26.6
2018-12-10T03:46:46.797Z,26.8
2018-12-10T03:47:36.388Z,26.9
2018-12-10T03:48:25.496Z,26.9
2018-12-10T03:49:16.395Z,26.7
2018-12-10T03:50:06.607Z,26.6
2018-12-10T03:50:55.990Z,26.4
2018-12-10T03:51:46.221Z,26.3
2018-12-10T03:52:35.903Z,26.4
2018-12-10T03:53:25.102Z,26.6
2018-12-10T03:54:17.045Z,26.9
2018-12-10T03:55:07.430Z,27.1
2018-12-10T03:55:56.361Z,27.3
2018-12-10T03:56:46.462Z,27.4
2018-12-10T03:57:37.023Z,27.6
2018-12-10T03:58:27.039Z,27.7
2018-12-10T04:00:06.995Z,27.9
2018-12-10T04:00:57.515Z,28
2018-12-10T04:01:47.223Z,28.1
2018-12-10T04:02:37.655Z,28.2
2018-12-10T04:03:27.765Z,28.3
2018-12-10T04:04:17.528Z,28.3
2018-12-10T04:05:07.557Z,28.4
2018-12-10T04:05:57.846Z,28.4
2018-12-10T04:06:47.193Z,28.5
2018-12-10T04:07:37.845Z,28.5
2018-12-10T04:08:27.580Z,28.4
2018-12-10T04:09:18.047Z,28.4
2018-12-10T04:10:07.646Z,28.4
2018-12-10T04:10:58.044Z,28.4
2018-12-10T04:11:48.373Z,28.4
2018-12-10T04:12:38.042Z,28.4
2018-12-10T04:13:27.597Z,28.4
2018-12-10T04:14:18.149Z,28.2
2018-12-10T04:15:08.523Z,27.8
2018-12-10T04:15:57.981Z,27.5
2018-12-10T04:16:48.051Z,27.3
2018-12-10T04:17:37.837Z,27.1
2018-12-10T04:18:31.037Z,26.8
2018-12-10T04:19:18.928Z,26.9
2018-12-10T04:20:08.059Z,27.1
2018-12-10T04:20:59.336Z,26.8
2018-12-10T04:21:48.133Z,26.7
2018-12-10T04:22:38.554Z,26.7
2018-12-10T04:23:28.732Z,26.7
2018-12-10T04:24:19.332Z,26.8
2018-12-10T04:25:25.320Z,27
2018-12-10T04:25:59.281Z,27.3
2018-12-10T04:26:49.323Z,27.4
2018-12-10T04:27:39.745Z,27.6
2018-12-10T04:28:29.111Z,27.7
2018-12-10T04:30:08.791Z,27.9
2018-12-10T04:30:59.177Z,28
2018-12-10T04:31:49.123Z,28.1
2018-12-10T04:32:39.195Z,28.2
2018-12-10T04:33:29.886Z,28.3
2018-12-10T04:34:18.938Z,28.3
2018-12-10T04:35:10.129Z,28.4
2018-12-10T04:36:00.242Z,28.4
2018-12-10T04:36:50.405Z,28.4
2018-12-10T04:54:08.665Z,26.6
2018-12-10T04:54:58.815Z,26.7
2018-12-10T04:55:46.884Z,26.8
2018-12-10T04:56:37.770Z,27.1
2018-12-10T04:57:27.209Z,27.3
2018-12-10T04:58:18.402Z,27.4
2018-12-10T04:59:08.526Z,27.6
2018-12-10T05:00:03.132Z,27.7
2018-12-10T05:01:38.572Z,27.9
2018-12-10T05:02:28.412Z,27.9
2018-12-10T05:03:18.658Z,28.1
2018-12-10T05:04:09.044Z,28.1
2018-12-10T05:04:57.252Z,28.2
2018-12-10T05:05:48.101Z,28.3
2018-12-10T05:06:38.439Z,28.3
2018-12-10T05:07:28.411Z,28.4
2018-12-10T05:08:18.534Z,28.4
2018-12-10T05:09:09.128Z,28.4
2018-12-10T05:09:59.151Z,28.5
2018-12-10T05:10:49.071Z,28.5
2018-12-10T05:11:40.056Z,28.6
2018-12-10T05:12:29.106Z,28.5
2018-12-10T05:13:18.306Z,28.5
2018-12-10T05:14:09.763Z,28.5
2018-12-10T05:15:00.105Z,28.5
2018-12-10T05:15:50.219Z,28.4
2018-12-10T05:16:39.060Z,28.4
2018-12-10T05:17:29.938Z,28.4
2018-12-10T05:18:19.513Z,28.4
2018-12-10T05:19:10.641Z,27.9
2018-12-10T05:20:01.003Z,27.6
2018-12-10T05:20:49.932Z,27.4
2018-12-10T05:21:40.496Z,27.3
2018-12-10T05:22:30.118Z,26.9
2018-12-10T05:23:20.405Z,26.8
2018-12-10T05:24:09.663Z,26.8
2018-12-10T05:25:00.220Z,26.9
2018-12-10T05:25:50.015Z,26.7
2018-12-10T05:26:39.509Z,26.6
2018-12-10T05:27:30.173Z,26.6
2018-12-10T05:28:19.435Z,26.6
2018-12-10T05:29:09.255Z,26.8
2018-12-10T05:30:01.297Z,27
2018-12-10T05:30:50.622Z,27.1
2018-12-10T05:31:41.790Z,27
2018-12-10T05:32:30.724Z,26.8
2018-12-10T05:33:20.892Z,26.6
2018-12-10T05:34:12.697Z,26.5
2018-12-10T05:35:01.033Z,26.3
2018-12-10T05:35:51.049Z,26.1
2018-12-10T05:36:41.547Z,26.1
2018-12-10T05:37:30.217Z,26.2
2018-12-10T05:38:21.727Z,26.4
2018-12-10T05:39:10.874Z,26.7
2018-12-10T05:40:01.042Z,26.8
2018-12-10T05:40:51.642Z,27
2018-12-10T05:41:42.125Z,26.8
2018-12-10T05:42:31.124Z,26.6
2018-12-10T05:43:21.490Z,26.4
2018-12-10T05:44:11.019Z,26.3
2018-12-10T05:45:01.574Z,26.3
2018-12-10T05:45:51.341Z,26.6
2018-12-10T05:46:41.377Z,26.8
2018-12-10T05:47:32.687Z,27
2018-12-10T05:48:21.379Z,27.2
2018-12-10T05:49:11.849Z,27.3
2018-12-10T05:50:02.412Z,27.4
2018-12-10T05:50:52.261Z,27.6
2018-12-10T05:51:42.261Z,27.8
2018-12-10T05:53:21.616Z,27.9
2018-12-10T05:54:12.566Z,28
2018-12-10T05:55:01.923Z,28.1
2018-12-10T05:55:52.589Z,28.2
2018-12-10T05:56:42.476Z,28.3
2018-12-10T05:57:31.856Z,28.3
2018-12-10T05:58:25.156Z,28.4
2018-12-10T05:59:12.798Z,28.4
2018-12-10T06:00:01.068Z,28.4
2018-12-10T06:00:53.949Z,28.4
2018-12-10T06:01:43.091Z,28.4
2018-12-10T06:02:33.291Z,28.4
2018-12-10T06:03:24.054Z,28.4
2018-12-10T06:04:13.755Z,28.4
2018-12-10T06:05:02.572Z,28.4
2018-12-10T06:05:53.325Z,28.4
2018-12-10T06:06:42.505Z,28.4
2018-12-10T06:07:32.506Z,28.3
2018-12-10T06:08:23.398Z,27.8
2018-12-10T06:09:13.525Z,27.4
2018-12-10T06:10:02.430Z,27.3
2018-12-10T06:10:53.085Z,27
2018-12-10T06:11:43.270Z,26.7
2018-12-10T06:12:34.056Z,26.8
2018-12-10T06:13:24.054Z,26.8
2018-12-10T06:14:13.870Z,26.6
2018-12-10T06:15:03.235Z,26.6
2018-12-10T06:15:54.079Z,26.6
2018-12-10T06:16:43.733Z,26.6
2018-12-10T06:17:34.093Z,26.8
2018-12-10T06:18:23.909Z,27
2018-12-10T06:19:13.362Z,27.2
2018-12-10T06:20:03.099Z,27.4
2018-12-10T06:20:53.675Z,27.5
2018-12-10T06:21:43.779Z,27.6
2018-12-10T06:22:34.119Z,27.8
2018-12-10T06:24:13.662Z,27.9
2018-12-10T06:25:04.870Z,28.1
2018-12-10T06:25:53.564Z,28.1
2018-12-10T06:26:44.706Z,28.2
2018-12-10T06:27:34.184Z,28.3
2018-12-10T06:28:24.629Z,28.3
2018-12-10T06:29:14.264Z,28.4
2018-12-10T06:30:05.261Z,28.4
2018-12-10T06:30:55.161Z,28.5
2018-12-10T06:31:44.015Z,28.5
2018-12-10T06:32:34.308Z,28.5
2018-12-10T06:33:24.251Z,28.6
2018-12-10T06:34:17.046Z,28.6
2018-12-10T06:35:05.636Z,28.5
2018-12-10T06:35:55.698Z,28.4
2018-12-10T06:36:46.308Z,28.4
2018-12-10T06:37:42.503Z,28.4
2018-12-10T06:38:25.574Z,28.3
2018-12-10T06:39:15.565Z,28.3
2018-12-10T06:40:05.965Z,27.9
2018-12-10T06:40:55.909Z,27.6
2018-12-10T06:41:45.430Z,27.4
2018-12-10T06:42:35.208Z,27.3
2018-12-10T06:43:26.070Z,26.9
2018-12-10T06:44:15.367Z,26.9
2018-12-10T06:45:05.155Z,27
2018-12-10T06:45:56.152Z,26.8
2018-12-10T06:46:46.264Z,26.7
2018-12-10T06:47:36.112Z,26.7
2018-12-10T06:48:26.265Z,26.8
2018-12-10T06:49:15.739Z,26.8
2018-12-10T06:50:06.088Z,27
2018-12-10T06:50:56.267Z,27.2
2018-12-10T06:51:45.554Z,27.4
2018-12-10T06:52:36.393Z,27.5
2018-12-10T06:53:25.465Z,27.6
2018-12-10T06:54:16.345Z,27.8
2018-12-10T06:55:56.384Z,27.9
2018-12-10T06:56:47.739Z,28
2018-12-10T06:57:36.736Z,28.1
2018-12-10T06:58:26.379Z,28.2
2018-12-10T06:59:16.641Z,28.3
2018-12-10T07:00:06.676Z,28.3
2018-12-10T07:00:57.279Z,28.3
2018-12-10T07:01:47.029Z,28.4
2018-12-10T07:02:37.629Z,28.4
2018-12-10T07:03:26.614Z,28.5
2018-12-10T07:04:17.548Z,28.5
2018-12-10T07:05:07.871Z,28.6
2018-12-10T07:05:56.878Z,28.6
2018-12-10T07:06:47.443Z,28.6
2018-12-10T07:07:38.093Z,28.6
2018-12-10T07:08:26.751Z,28.6
2018-12-10T07:09:17.095Z,28.6
2018-12-10T07:10:07.058Z,28.6
2018-12-10T07:10:57.665Z,28.5
2018-12-10T07:11:48.546Z,28.4
2018-12-10T07:12:38.207Z,28.4
2018-12-10T07:13:27.235Z,28.4
2018-12-10T07:14:17.864Z,28.3
2018-12-10T07:15:07.673Z,28.1
2018-12-10T07:15:58.005Z,27.8
2018-12-10T07:16:47.506Z,27.5
2018-12-10T07:17:36.729Z,27.3
2018-12-10T07:18:27.586Z,27
2018-12-10T07:19:17.728Z,26.9
2018-12-10T07:20:07.749Z,26.9
2018-12-10T07:20:57.587Z,26.8
2018-12-10T07:21:47.828Z,26.7
2018-12-10T07:22:37.947Z,26.8
2018-12-10T07:23:28.613Z,26.8
2018-12-10T07:24:17.738Z,26.8
2018-12-10T07:25:09.580Z,26.9
2018-12-10T07:25:58.105Z,27.1
2018-12-10T07:26:48.202Z,27.3
2018-12-10T07:27:38.017Z,27.3
2018-12-10T07:28:28.069Z,27.2
2018-12-10T07:29:18.657Z,27.1
2018-12-10T07:30:09.024Z,26.8
2018-12-10T07:30:59.288Z,26.6
2018-12-10T07:31:48.884Z,26.4
2018-12-10T07:32:38.747Z,26.3
2018-12-10T07:33:28.377Z,26.3
2018-12-10T07:34:19.512Z,26.3
2018-12-10T07:35:08.519Z,26.5
2018-12-10T07:35:59.147Z,26.8
2018-12-10T07:36:49.461Z,26.9
2018-12-10T07:37:40.049Z,26.8
2018-12-10T07:38:30.068Z,26.6
2018-12-10T07:39:19.041Z,26.6
2018-12-10T07:40:11.767Z,26.4
2018-12-10T07:41:00.296Z,26.3
2018-12-10T07:41:48.646Z,26.4
2018-12-10T07:42:39.804Z,26.6
2018-12-10T07:43:28.493Z,26.8
2018-12-10T07:44:19.088Z,27.1
2018-12-10T07:45:09.251Z,27.2
2018-12-10T07:45:59.560Z,27.4
2018-12-10T07:46:50.073Z,27.5
2018-12-10T07:47:39.998Z,27.6
2018-12-10T07:48:29.439Z,27.8
2018-12-10T07:50:10.620Z,27.9
2018-12-10T07:51:00.403Z,28
2018-12-10T07:51:50.443Z,28.1
2018-12-10T07:52:41.195Z,28.2
2018-12-10T07:53:30.525Z,28.3
2018-12-10T07:54:21.266Z,28.3
2018-12-10T07:55:10.130Z,28.4
2018-12-10T07:56:02.004Z,28.4
2018-12-10T07:56:50.490Z,28.4
2018-12-10T07:57:40.045Z,28.5
2018-12-10T07:58:30.982Z,28.4
2018-12-10T07:59:20.173Z,28.4
2018-12-10T08:00:10.253Z,28.4
2018-12-10T08:01:00.649Z,28.4
2018-12-10T08:01:51.052Z,28.3
2018-12-10T08:02:39.999Z,28.3
2018-12-10T08:03:30.747Z,28.2
2018-12-10T08:04:20.500Z,27.9
2018-12-10T08:05:18.809Z,27.6
2018-12-10T08:06:00.789Z,27.3
2018-12-10T08:06:50.489Z,27
2018-12-10T08:07:40.624Z,26.8
2018-12-10T08:08:31.721Z,27
2018-12-10T08:09:21.647Z,27.4
2018-12-10T08:10:11.806Z,27.3
2018-12-10T08:11:00.620Z,26.9
2018-12-10T08:11:51.861Z,26.8
2018-12-10T08:12:41.023Z,26.8
2018-12-10T08:13:32.168Z,26.8
2018-12-10T08:14:21.480Z,26.9
2018-12-10T08:15:11.798Z,27.2
2018-12-10T08:16:01.050Z,27.4
2018-12-10T08:16:51.067Z,27.5
2018-12-10T08:17:41.169Z,27.6
2018-12-10T08:18:31.702Z,27.8
2018-12-10T08:19:21.747Z,27.9
2018-12-10T08:20:11.045Z,27.9
2018-12-10T08:21:10.538Z,28.1
2018-12-10T08:21:52.556Z,28.1
2018-12-10T08:22:41.711Z,28.2
2018-12-10T08:23:33.545Z,28.3
2018-12-10T08:24:21.965Z,28.4
2018-12-10T08:25:12.816Z,28.4
2018-12-10T08:26:01.526Z,28.4
2018-12-10T08:26:52.569Z,28.4
2018-12-10T08:27:42.624Z,28.4
2018-12-10T08:28:32.964Z,28.4
2018-12-10T08:29:23.264Z,28.4
2018-12-10T08:30:13.312Z,28.5
2018-12-10T08:31:05.049Z,28.5
2018-12-10T08:31:53.514Z,28.5
2018-12-10T08:32:43.604Z,28.5
2018-12-10T08:33:32.171Z,28.4
2018-12-10T08:34:23.340Z,28.2
2018-12-10T08:35:13.425Z,27.7
2018-12-10T08:36:03.541Z,27.4
2018-12-10T08:36:52.683Z,27.3
2018-12-10T08:37:43.561Z,27.1
2018-12-10T08:38:32.948Z,26.7
2018-12-10T08:39:23.799Z,26.7
2018-12-10T08:40:13.918Z,27
2018-12-10T08:41:03.127Z,27.1
2018-12-10T08:41:52.355Z,26.8
2018-12-10T08:42:43.595Z,26.7
2018-12-10T08:43:33.013Z,26.6
2018-12-10T08:44:22.940Z,26.6
2018-12-10T08:45:14.639Z,26.8
2018-12-10T08:46:03.058Z,27.1
2018-12-10T08:46:53.838Z,27.3
2018-12-10T08:47:44.375Z,27.4
2018-12-10T08:48:33.455Z,27.6
2018-12-10T08:49:24.307Z,27.7
2018-12-10T08:51:05.547Z,27.9
2018-12-10T08:51:54.431Z,28
2018-12-10T08:52:43.755Z,28.1
2018-12-10T09:08:31.426Z,27.6
2018-12-10T09:09:20.935Z,27.4
2018-12-10T09:10:11.873Z,27.2
2018-12-10T09:11:01.619Z,26.9
2018-12-10T09:11:51.152Z,27
2018-12-10T09:12:50.586Z,27.1
2018-12-10T09:13:32.688Z,26.9
2018-12-10T09:14:22.746Z,26.9
2018-12-10T09:15:11.925Z,26.8
2018-12-10T09:16:01.108Z,26.8
2018-12-10T09:16:53.315Z,26.8
2018-12-10T09:17:42.828Z,27
2018-12-10T09:18:32.051Z,27.2
2018-12-10T09:19:22.624Z,27.4
2018-12-10T09:20:12.485Z,27.4
2018-12-10T09:21:02.540Z,27.3
2018-12-10T09:21:51.710Z,27.1
2018-12-10T09:22:41.215Z,27
2018-12-10T09:23:32.755Z,26.8
2018-12-10T09:24:23.055Z,26.6
2018-12-10T09:25:11.977Z,26.4
2018-12-10T09:26:02.655Z,26.4
2018-12-10T09:26:53.405Z,26.5
2018-12-10T09:27:43.008Z,26.8
2018-12-10T09:28:32.843Z,26.9
2018-12-10T09:29:22.175Z,26.8
2018-12-10T09:30:13.190Z,26.7
2018-12-10T09:31:02.694Z,26.6
2018-12-10T09:31:53.237Z,26.3
2018-12-10T09:32:43.864Z,26.3
2018-12-10T09:33:32.619Z,26.4
2018-12-10T09:34:23.484Z,26.7
2018-12-10T09:35:13.619Z,26.9
2018-12-10T09:36:03.404Z,27.1
2018-12-10T09:36:52.810Z,27.3
2018-12-10T09:37:42.639Z,27.4
2018-12-10T09:38:33.709Z,27.6
2018-12-10T09:39:23.698Z,27.7
2018-12-10T09:41:03.589Z,27.9
2018-12-10T09:41:53.772Z,28
2018-12-10T09:42:43.996Z,28.1
2018-12-10T09:43:34.374Z,28.2
2018-12-10T09:44:23.918Z,28.3
2018-12-10T09:45:14.327Z,28.3
2018-12-10T09:46:03.748Z,28.4
2018-12-10T09:47:03.128Z,28.4
2018-12-10T09:47:43.613Z,28.5
2018-12-10T09:48:32.824Z,28.5
2018-12-10T09:49:23.391Z,28.5
2018-12-10T09:50:13.306Z,28.4
2018-12-10T09:51:05.161Z,28.4
2018-12-10T09:51:55.229Z,28.4
2018-12-10T09:52:44.743Z,28.3
2018-12-10T09:53:34.453Z,28.3
2018-12-10T09:54:24.829Z,28.2
2018-12-10T09:55:14.590Z,28.1
2018-12-10T09:56:03.645Z,27.7
2018-12-10T09:56:54.927Z,27.4
2018-12-10T09:57:45.328Z,27.1
2018-12-10T09:58:35.103Z,26.9
2018-12-10T09:59:25.125Z,27
2018-12-10T10:00:14.105Z,27.4
2018-12-10T10:01:05.313Z,26.9
2018-12-10T10:01:54.583Z,26.8
2018-12-10T10:02:45.383Z,26.8
2018-12-10T10:03:35.288Z,26.8
2018-12-10T10:04:25.274Z,26.8
2018-12-10T10:05:14.833Z,27.1
2018-12-10T10:06:06.170Z,27.3
2018-12-10T10:06:56.203Z,27.4
2018-12-10T10:07:45.417Z,27.6
2018-12-10T10:08:36.296Z,27.7
2018-12-10T10:10:16.063Z,27.9
2018-12-10T10:11:05.709Z,28
2018-12-10T10:11:55.988Z,28.1
2018-12-10T10:12:46.285Z,28.3
2018-12-10T10:13:35.827Z,28.3
2018-12-10T10:14:26.200Z,28.4
2018-12-10T10:15:16.392Z,28.4
2018-12-10T10:16:06.807Z,28.4
2018-12-10T10:16:56.275Z,28.4
2018-12-10T10:17:46.195Z,28.3
2018-12-10T10:18:36.782Z,28.2
2018-12-10T10:19:25.694Z,28.1
2018-12-10T10:20:15.354Z,27.9
2018-12-10T10:21:56.387Z,27.8
2018-12-10T10:22:46.473Z,27.6
2018-12-10T10:23:37.475Z,27.5
2018-12-10T10:24:25.883Z,27.4
2018-12-10T10:25:17.466Z,27.4
2018-12-10T10:26:06.991Z,27.3
2018-12-10T10:26:55.901Z,27.1
2018-12-10T10:27:46.604Z,27.1
2018-12-10T10:28:36.621Z,27
2018-12-10T10:29:27.446Z,26.9
2018-12-10T10:30:16.751Z,26.8
2018-12-10T10:31:06.489Z,26.8
2018-12-10T10:31:56.921Z,26.7
2018-12-10T10:32:46.031Z,26.6
2018-12-10T10:33:42.101Z,26.5
2018-12-10T10:34:27.155Z,26.4
2018-12-10T10:35:17.888Z,26.4
2018-12-10T10:36:07.538Z,26.3
2018-12-10T10:36:57.706Z,26.3
2018-12-10T10:37:47.255Z,26.1
2018-12-10T10:38:37.614Z,26.1
2018-12-10T10:39:28.116Z,26
2018-12-10T10:40:17.675Z,25.9
2018-12-10T10:41:07.745Z,25.9
2018-12-10T10:41:59.801Z,25.8
2018-12-10T10:42:48.160Z,25.8
2018-12-10T10:43:38.079Z,25.7
2018-12-10T10:44:27.687Z,25.6
2018-12-10T10:45:17.451Z,25.6
2018-12-10T10:46:08.172Z,25.5
2018-12-10T10:46:58.165Z,25.4
2018-12-10T10:47:49.130Z,25.4
2018-12-10T10:48:36.883Z,25.3
2018-12-10T10:49:27.467Z,25.3
2018-12-10T10:50:18.255Z,25.2
2018-12-10T10:51:08.125Z,25.1
2018-12-10T10:51:57.210Z,25.1
2018-12-10T10:52:48.357Z,24.9
2018-12-10T10:53:38.400Z,24.9
2018-12-10T10:54:29.047Z,24.8
2018-12-10T10:55:18.968Z,24.8
2018-12-10T10:56:08.539Z,24.6
2018-12-10T10:56:58.087Z,24.6
2018-12-10T10:57:48.485Z,24.5
2018-12-10T10:58:39.177Z,24.4
2018-12-10T10:59:28.974Z,24.3
2018-12-10T11:00:19.837Z,24.3
2018-12-10T11:01:09.352Z,24.2
2018-12-10T11:01:59.717Z,24.1
2018-12-10T11:02:51.601Z,24.1
2018-12-10T11:03:39.271Z,23.9
2018-12-10T11:04:38.579Z,23.9
2018-12-10T11:05:19.314Z,23.8
2018-12-10T11:06:09.422Z,23.8
2018-12-10T11:06:58.481Z,23.7
2018-12-10T11:07:49.447Z,23.6
2018-12-10T11:08:40.272Z,23.6
2018-12-10T11:09:30.206Z,23.5
2018-12-10T11:10:20.309Z,23.4
2018-12-10T11:11:10.443Z,23.4
2018-12-10T11:11:59.828Z,23.3
2018-12-10T11:12:49.431Z,23.3
2018-12-10T11:13:40.591Z,23.3
2018-12-10T11:14:30.986Z,23.1
2018-12-10T11:15:18.751Z,23.1
2018-12-10T11:16:10.205Z,23.1
2018-12-10T11:17:00.458Z,23
2018-12-10T11:17:50.234Z,22.9
2018-12-10T11:18:40.061Z,22.9
2018-12-10T11:19:30.661Z,22.9
2018-12-10T11:20:20.448Z,22.8
2018-12-10T11:21:10.190Z,22.8
2018-12-10T11:22:00.796Z,22.8
2018-12-10T11:22:51.025Z,22.7
2018-12-10T11:23:41.195Z,22.6
2018-12-10T11:24:30.410Z,22.6
2018-12-10T11:25:21.618Z,22.6
2018-12-10T11:26:10.972Z,22.5
2018-12-10T11:27:00.280Z,22.5
2018-12-10T11:27:50.716Z,22.4
2018-12-10T11:28:40.950Z,22.4
2018-12-10T11:29:30.745Z,22.4
2018-12-10T11:30:20.562Z,22.3
2018-12-10T11:31:10.706Z,22.3
2018-12-10T11:32:01.155Z,22.3
2018-12-10T11:32:50.967Z,22.3
2018-12-10T11:33:40.317Z,22.2
2018-12-10T11:34:31.088Z,22.2
2018-12-10T11:35:21.425Z,22.2
2018-12-10T11:36:11.509Z,22.1
2018-12-10T11:37:01.555Z,22.1
2018-12-10T11:37:51.839Z,22.1
2018-12-10T11:38:41.386Z,22
2018-12-10T11:39:31.180Z,22
2018-12-10T11:40:22.027Z,21.9
2018-12-10T11:41:12.494Z,21.9
2018-12-10T11:42:02.499Z,21.9
2018-12-10T11:42:51.237Z,21.9
2018-12-10T11:43:42.039Z,21.8
2018-12-10T11:44:32.331Z,21.8
2018-12-10T11:45:22.698Z,21.8
2018-12-10T11:46:12.437Z,21.8
2018-12-10T11:47:02.469Z,21.8
2018-12-10T11:47:53.759Z,21.7
2018-12-10T11:48:42.371Z,21.7
2018-12-10T11:49:32.677Z,21.6
2018-12-10T11:50:24.832Z,21.6
2018-12-10T11:51:12.784Z,21.6
2018-12-10T11:52:02.806Z,21.6
2018-12-10T11:52:53.026Z,21.6
2018-12-10T11:53:42.136Z,21.6
2018-12-10T11:54:32.726Z,21.6
2018-12-10T11:55:23.384Z,21.5
2018-12-10T11:56:13.159Z,21.5
2018-12-10T11:57:03.209Z,21.4
2018-12-10T11:57:53.609Z,21.4
2018-12-10T11:58:43.014Z,21.4
2018-12-10T11:59:33.146Z,21.4
2018-12-10T12:00:23.474Z,21.4
2018-12-10T12:01:12.908Z,21.4
2018-12-10T12:02:03.036Z,21.3
2018-12-10T12:02:53.388Z,21.3
2018-12-10T12:03:43.136Z,21.3
2018-12-10T12:04:32.235Z,21.3
2018-12-10T12:05:23.768Z,21.3
2018-12-10T12:06:14.329Z,21.3
2018-12-10T12:07:04.183Z,21.3
2018-12-10T12:07:53.738Z,21.3
2018-12-10T12:08:44.117Z,21.2
2018-12-10T12:09:34.343Z,21.2
2018-12-10T12:10:23.310Z,21.2